createdAt,value
2019-05-14T00:01:54.089Z,50.80
2019-05-14T00:04:23.582Z,51.00
2019-05-14T00:06:52.818Z,49.70
2019-05-14T00:09:22.559Z,50.20
2019-05-14T00:11:52.068Z,49.80
2019-05-14T00:14:22.063Z,49.80
2019-05-14T00:16:52.846Z,50.90
2019-05-14T00:19:22.348Z,50.40
2019-05-14T00:21:52.588Z,51.10
2019-05-14T00:24:21.836Z,51.10
2019-05-14T00:26:51.749Z,51.00
2019-05-14T00:29:21.991Z,51.20
2019-05-14T00:31:51.817Z,50.30
2019-05-14T00:34:21.486Z,50.20
2019-05-14T00:36:52.430Z,51.80
2019-05-14T00:39:22.186Z,49.50
2019-05-14T00:41:51.428Z,50.90
2019-05-14T00:44:21.546Z,50.50
2019-05-14T00:46:51.699Z,48.40
2019-05-14T00:49:21.273Z,48.40
2019-05-14T00:51:51.950Z,50.50
2019-05-14T00:54:22.220Z,49.80
2019-05-14T00:56:52.168Z,50.40
2019-05-14T00:59:22.131Z,48.90
2019-05-14T01:01:51.805Z,49.00
2019-05-14T01:04:22.277Z,48.60
2019-05-14T01:06:52.363Z,48.70
2019-05-14T01:09:24.488Z,48.20
2019-05-14T01:11:54.277Z,48.20
2019-05-14T01:14:23.479Z,48.20
2019-05-14T01:16:52.972Z,48.80
2019-05-14T01:19:22.111Z,49.10
2019-05-14T01:21:51.892Z,49.20
2019-05-14T01:24:21.657Z,50.00
2019-05-14T01:26:52.273Z,50.00
2019-05-14T01:29:22.019Z,50.90
2019-05-14T01:31:52.128Z,52.50
2019-05-14T01:34:21.753Z,53.10
2019-05-14T01:36:52.940Z,56.30
2019-05-14T01:39:22.726Z,53.00
2019-05-14T01:41:53.018Z,54.80
2019-05-14T01:44:22.873Z,55.50
2019-05-14T01:46:52.796Z,55.70
2019-05-14T01:49:22.233Z,55.90
2019-05-14T01:51:51.450Z,55.90
2019-05-14T01:54:21.276Z,56.60
2019-05-14T01:56:51.519Z,56.70
2019-05-14T01:59:21.361Z,56.30
2019-05-14T02:01:51.780Z,57.20
2019-05-14T02:04:22.154Z,56.60
2019-05-14T02:06:52.110Z,57.10
2019-05-14T02:09:21.856Z,57.40
2019-05-14T02:11:51.906Z,57.70
2019-05-14T02:14:22.061Z,58.30
2019-05-14T02:16:52.091Z,59.00
2019-05-14T02:19:22.198Z,58.50
2019-05-14T02:21:51.580Z,59.40
2019-05-14T02:24:21.832Z,61.20
2019-05-14T02:26:51.561Z,60.20
2019-05-14T02:29:21.454Z,61.40
2019-05-14T02:31:51.216Z,60.60
2019-05-14T02:34:20.762Z,62.70
2019-05-14T02:36:50.021Z,62.60
2019-05-14T02:39:19.804Z,61.90
2019-05-14T02:41:49.909Z,60.90
2019-05-14T02:44:20.012Z,60.30
2019-05-14T02:46:50.598Z,59.40
2019-05-14T02:49:20.064Z,60.90
2019-05-14T02:51:50.646Z,60.30
2019-05-14T02:54:20.530Z,59.80
2019-05-14T02:56:49.934Z,61.30
2019-05-14T02:59:19.668Z,61.20
2019-05-14T03:01:50.272Z,60.90
2019-05-14T03:04:20.014Z,60.60
2019-05-14T03:06:50.106Z,60.90
2019-05-14T03:09:20.533Z,61.20
2019-05-14T03:11:49.985Z,60.90
2019-05-14T03:14:19.868Z,61.30
2019-05-14T03:16:49.744Z,61.20
2019-05-14T03:19:19.912Z,61.80
2019-05-14T03:21:50.346Z,62.70
2019-05-14T03:24:19.909Z,62.00
2019-05-14T03:26:50.199Z,62.90
2019-05-14T03:29:20.235Z,63.10
2019-05-14T03:31:52.549Z,62.50
2019-05-14T03:34:22.641Z,64.70
2019-05-14T03:36:53.417Z,67.40
2019-05-14T03:39:23.008Z,66.40
2019-05-14T03:41:52.513Z,68.10
2019-05-14T03:44:21.885Z,69.10
2019-05-14T03:46:55.431Z,67.80
2019-05-14T03:49:23.583Z,67.20
2019-05-14T03:51:52.751Z,67.20
2019-05-14T03:54:22.258Z,67.00
2019-05-14T03:56:51.789Z,66.30
2019-05-14T03:59:21.449Z,65.80
2019-05-14T04:01:51.290Z,65.70
2019-05-14T04:04:21.236Z,65.70
2019-05-14T04:06:52.846Z,65.90
2019-05-14T04:09:23.714Z,66.40
2019-05-14T04:11:55.655Z,66.10
2019-05-14T04:14:29.231Z,66.10
2019-05-14T04:17:09.319Z,66.80
2019-05-14T04:19:33.888Z,66.60
2019-05-14T04:22:05.296Z,66.90
2019-05-14T04:24:41.067Z,63.10
2019-05-14T04:27:12.946Z,60.90
2019-05-14T04:29:41.867Z,62.20
2019-05-14T04:32:11.296Z,63.70
2019-05-14T04:34:41.207Z,62.90
2019-05-14T04:37:12.763Z,63.10
2019-05-14T04:39:42.337Z,62.40
2019-05-14T04:42:11.616Z,61.90
2019-05-14T04:44:41.319Z,61.70
2019-05-14T04:47:28.001Z,62.10
2019-05-14T04:49:41.359Z,62.10
2019-05-14T04:52:11.162Z,62.50
2019-05-14T04:54:40.445Z,62.60
2019-05-14T04:57:10.929Z,62.80
2019-05-14T04:59:41.584Z,64.30
2019-05-14T05:02:10.830Z,62.50
2019-05-14T05:04:41.574Z,61.70
2019-05-14T05:07:11.316Z,62.60
2019-05-14T05:09:41.016Z,61.20
2019-05-14T05:12:10.943Z,61.30
2019-05-14T05:14:40.687Z,60.80
2019-05-14T05:17:11.456Z,61.40
2019-05-14T05:19:45.377Z,61.00
2019-05-14T05:22:12.814Z,60.90
2019-05-14T05:24:42.344Z,60.80
2019-05-14T05:27:11.871Z,60.40
2019-05-14T05:29:41.583Z,59.40
2019-05-14T05:32:11.376Z,56.90
2019-05-14T05:34:41.621Z,57.10
2019-05-14T05:37:11.836Z,58.30
2019-05-14T05:39:41.173Z,56.40
2019-05-14T05:42:11.069Z,56.00
2019-05-14T05:44:41.556Z,55.00
2019-05-14T05:47:11.303Z,57.70
2019-05-14T05:49:41.416Z,57.30
2019-05-14T05:52:11.344Z,52.80
2019-05-14T05:54:41.692Z,52.90
2019-05-14T05:57:11.760Z,50.60
2019-05-14T05:59:41.414Z,49.90
2019-05-14T06:02:11.400Z,50.80
2019-05-14T06:04:41.763Z,49.70
2019-05-14T06:07:12.506Z,48.80
2019-05-14T06:09:41.736Z,49.20
2019-05-14T06:12:11.608Z,48.50
2019-05-14T06:14:41.696Z,47.10
2019-05-14T06:17:11.729Z,48.00
2019-05-14T06:19:42.151Z,46.50
2019-05-14T06:22:11.912Z,47.40
2019-05-14T06:24:41.813Z,46.90
2019-05-14T06:27:12.208Z,47.90
2019-05-14T06:29:42.519Z,47.20
2019-05-14T06:32:11.957Z,47.10
2019-05-14T06:34:42.476Z,46.60
2019-05-14T06:37:12.284Z,47.60
2019-05-14T06:39:42.417Z,48.00
2019-05-14T06:42:12.391Z,47.30
2019-05-14T06:44:42.449Z,47.40
2019-05-14T06:47:12.801Z,46.30
2019-05-14T06:49:42.863Z,46.70
2019-05-14T06:52:13.003Z,47.70
2019-05-14T06:54:42.243Z,46.00
2019-05-14T06:57:12.707Z,46.90
2019-05-14T06:59:42.761Z,48.50
2019-05-14T07:02:13.090Z,45.80
2019-05-14T07:04:42.425Z,45.10
2019-05-14T07:07:12.598Z,45.00
2019-05-14T07:09:42.564Z,45.20
2019-05-14T07:12:13.242Z,44.60
2019-05-14T07:14:42.972Z,45.80
2019-05-14T07:17:12.689Z,46.10
2019-05-14T07:19:42.771Z,46.40
2019-05-14T07:22:12.716Z,44.60
2019-05-14T07:24:43.420Z,44.30
2019-05-14T07:27:12.860Z,44.70
2019-05-14T07:29:43.262Z,46.00
2019-05-14T07:32:13.308Z,44.90
2019-05-14T07:34:43.408Z,42.80
2019-05-14T07:37:13.028Z,43.60
2019-05-14T07:39:43.468Z,42.80
2019-05-14T07:42:13.484Z,42.90
2019-05-14T07:44:43.964Z,46.10
2019-05-14T07:47:13.521Z,45.40
2019-05-14T07:49:43.968Z,44.70
2019-05-14T07:52:13.404Z,42.10
2019-05-14T07:54:43.759Z,41.10
2019-05-14T07:57:13.500Z,40.90
2019-05-14T07:59:43.690Z,38.50
2019-05-14T08:02:14.337Z,38.80
2019-05-14T08:04:43.856Z,40.40
2019-05-14T08:07:13.861Z,39.10
2019-05-14T08:10:09.064Z,38.60
2019-05-14T08:12:39.126Z,40.30
2019-05-14T08:15:18.404Z,39.70
2019-05-14T08:17:41.172Z,40.50
2019-05-14T08:20:12.700Z,39.10
2019-05-14T08:22:42.215Z,39.80
2019-05-14T08:25:11.642Z,39.80
2019-05-14T08:27:40.844Z,40.60
2019-05-14T08:30:10.788Z,41.30
2019-05-14T08:32:40.476Z,40.30
2019-05-14T08:35:10.592Z,38.60
2019-05-14T08:37:39.795Z,39.00
2019-05-14T08:40:09.767Z,41.40
2019-05-14T08:42:39.644Z,42.60
2019-05-14T08:45:13.674Z,38.30
2019-05-14T08:47:40.985Z,39.80
2019-05-14T08:50:10.900Z,36.60
2019-05-14T08:52:40.376Z,35.80
2019-05-14T08:55:13.786Z,35.10
2019-05-14T08:57:41.047Z,38.20
2019-05-14T09:00:13.912Z,36.40
2019-05-14T09:02:41.628Z,34.60
2019-05-14T09:05:11.428Z,36.40
2019-05-14T09:07:41.023Z,36.30
2019-05-14T09:10:10.449Z,37.40
2019-05-14T09:12:39.703Z,37.00
2019-05-14T09:15:09.750Z,38.60
2019-05-14T09:17:39.575Z,39.60
2019-05-14T09:20:11.664Z,40.40
2019-05-14T09:22:41.291Z,41.60
2019-05-14T09:25:10.472Z,40.90
2019-05-14T09:27:40.456Z,42.40
2019-05-14T09:30:10.031Z,41.10
2019-05-14T09:32:39.877Z,41.20
2019-05-14T09:35:10.244Z,40.30
2019-05-14T09:37:39.954Z,40.70
2019-05-14T09:40:09.540Z,40.00
2019-05-14T09:42:39.683Z,40.30
2019-05-14T09:45:11.143Z,40.20
2019-05-14T09:47:40.340Z,39.10
2019-05-14T09:50:22.256Z,37.80
2019-05-14T09:52:41.979Z,37.30
2019-05-14T09:55:11.506Z,37.10
2019-05-14T09:57:41.535Z,36.20
2019-05-14T10:00:14.493Z,35.90
2019-05-14T10:02:42.975Z,34.70
2019-05-14T10:05:13.161Z,35.90
2019-05-14T10:07:43.015Z,36.50
2019-05-14T10:10:12.317Z,37.30
2019-05-14T10:12:52.461Z,37.70
2019-05-14T10:15:13.043Z,38.40
2019-05-14T10:17:42.614Z,35.90
2019-05-14T10:20:11.905Z,36.40
2019-05-14T10:22:41.691Z,35.20
2019-05-14T10:25:11.312Z,33.10
2019-05-14T10:27:40.519Z,31.90
2019-05-14T10:30:10.981Z,32.50
2019-05-14T10:32:41.648Z,33.00
2019-05-14T10:35:11.493Z,33.30
2019-05-14T10:37:40.740Z,34.50
2019-05-14T10:40:11.620Z,34.70
2019-05-14T10:42:41.187Z,33.60
2019-05-14T10:45:12.818Z,31.40
2019-05-14T10:47:41.840Z,31.30
2019-05-14T10:50:13.933Z,30.70
2019-05-14T10:52:43.925Z,32.90
2019-05-14T10:55:13.445Z,33.90
2019-05-14T10:57:43.279Z,34.70
2019-05-14T11:00:12.743Z,34.80
2019-05-14T11:02:42.242Z,34.80
2019-05-14T11:05:11.667Z,34.70
2019-05-14T11:07:41.759Z,34.70
2019-05-14T11:10:11.160Z,35.20
2019-05-14T11:12:41.404Z,35.60
2019-05-14T11:15:11.163Z,36.20
2019-05-14T11:17:41.052Z,36.40
2019-05-14T11:20:10.411Z,37.40
2019-05-14T11:22:39.581Z,36.80
2019-05-14T11:25:09.309Z,34.90
2019-05-14T11:27:39.306Z,31.80
2019-05-14T11:30:10.040Z,32.60
2019-05-14T11:32:39.540Z,33.00
2019-05-14T11:35:12.820Z,33.50
2019-05-14T11:37:41.647Z,34.20
2019-05-14T11:40:11.136Z,34.60
2019-05-14T11:42:40.310Z,34.70
2019-05-14T11:45:10.555Z,35.00
2019-05-14T11:47:40.151Z,35.00
2019-05-14T11:50:10.171Z,34.50
2019-05-14T11:52:39.445Z,35.40
2019-05-14T11:55:09.701Z,33.40
2019-05-14T11:57:39.499Z,33.20
2019-05-14T12:00:10.408Z,33.50
2019-05-14T12:02:39.939Z,31.50
2019-05-14T12:05:10.600Z,31.70
2019-05-14T12:07:39.828Z,30.90
2019-05-14T12:10:09.623Z,30.60
2019-05-14T12:12:39.678Z,30.80
2019-05-14T12:15:10.255Z,31.30
2019-05-14T12:17:39.841Z,32.60
2019-05-14T12:20:10.144Z,35.10
2019-05-14T12:22:39.939Z,35.60
2019-05-14T12:25:09.983Z,33.80
2019-05-14T12:27:40.316Z,35.80
2019-05-14T12:30:10.813Z,35.10
2019-05-14T12:32:40.576Z,35.50
2019-05-14T12:35:10.619Z,33.60
2019-05-14T12:37:41.036Z,32.00
2019-05-14T12:40:10.408Z,34.00
2019-05-14T12:42:40.468Z,33.50
2019-05-14T12:45:11.304Z,34.30
2019-05-14T12:47:40.607Z,35.20
2019-05-14T12:50:13.012Z,33.90
2019-05-14T12:52:42.663Z,33.10
2019-05-14T12:55:11.821Z,33.30
2019-05-14T12:57:41.271Z,33.30
2019-05-14T13:00:11.219Z,32.60
2019-05-14T13:02:41.096Z,34.30
2019-05-14T13:05:11.079Z,33.80
2019-05-14T13:07:41.962Z,34.40
2019-05-14T13:10:12.100Z,34.10
2019-05-14T13:12:41.241Z,34.10
2019-05-14T13:15:12.699Z,34.00
2019-05-14T13:17:42.220Z,33.30
2019-05-14T13:20:13.551Z,29.80
2019-05-14T13:22:46.444Z,29.30
2019-05-14T13:25:14.040Z,30.20
2019-05-14T13:27:43.263Z,32.00
2019-05-14T13:30:12.747Z,33.50
2019-05-14T13:32:42.278Z,34.30
2019-05-14T13:35:13.689Z,34.60
2019-05-14T13:37:43.739Z,34.20
2019-05-14T13:40:14.079Z,34.30
2019-05-14T13:42:44.914Z,33.60
2019-05-14T13:45:15.534Z,32.70
2019-05-14T13:47:45.236Z,33.50
2019-05-14T13:50:14.892Z,31.30
2019-05-14T13:52:58.239Z,29.10
2019-05-14T13:55:15.610Z,30.20
2019-05-14T13:57:44.846Z,29.30
2019-05-14T14:00:15.727Z,27.90
2019-05-14T14:02:46.061Z,28.30
2019-05-14T14:05:15.567Z,29.90
2019-05-14T14:07:45.212Z,31.30
2019-05-14T14:10:14.414Z,32.20
2019-05-14T14:12:43.965Z,33.30
2019-05-14T14:15:13.332Z,32.10
2019-05-14T14:17:43.505Z,31.30
2019-05-14T14:22:42.030Z,29.70
2019-05-14T14:25:11.301Z,29.10
2019-05-14T14:27:41.335Z,29.30
2019-05-14T14:30:11.848Z,30.30
2019-05-14T14:32:41.145Z,31.90
2019-05-14T14:35:10.787Z,32.30
2019-05-14T14:37:40.393Z,31.90
2019-05-14T14:40:11.072Z,31.60
2019-05-14T14:42:40.933Z,31.10
2019-05-14T14:45:10.952Z,30.50
2019-05-14T14:47:40.177Z,30.70
2019-05-14T14:50:10.271Z,30.50
2019-05-14T14:52:39.725Z,30.30
2019-05-14T14:55:09.613Z,31.50
2019-05-14T14:57:44.748Z,32.30
2019-05-14T15:00:11.584Z,33.50
2019-05-14T15:02:41.348Z,33.90
2019-05-14T15:05:14.118Z,34.90
2019-05-14T15:07:43.489Z,33.60
2019-05-14T15:10:13.135Z,33.00
2019-05-14T15:12:43.002Z,33.30
2019-05-14T15:15:12.316Z,32.50
2019-05-14T15:17:41.919Z,33.30
2019-05-14T15:20:11.788Z,33.60
2019-05-14T15:22:40.999Z,33.90
2019-05-14T15:25:10.861Z,34.80
2019-05-14T15:27:40.036Z,34.70
2019-05-14T15:30:09.685Z,35.00
2019-05-14T15:32:38.933Z,35.70
2019-05-14T15:35:10.597Z,36.00
2019-05-14T15:37:42.644Z,35.70
2019-05-14T15:40:12.373Z,34.50
2019-05-14T15:42:41.998Z,34.90
2019-05-14T15:45:11.476Z,34.10
2019-05-14T15:47:40.713Z,32.50
2019-05-14T15:50:10.378Z,33.40
2019-05-14T15:52:40.445Z,33.50
2019-05-14T15:55:10.522Z,34.00
2019-05-14T15:57:40.176Z,33.60
2019-05-14T16:00:11.607Z,33.40
2019-05-14T16:02:41.216Z,32.80
2019-05-14T16:05:10.571Z,33.20
2019-05-14T16:07:39.924Z,33.60
2019-05-14T16:10:09.717Z,33.70
2019-05-14T16:12:40.165Z,34.20
2019-05-14T16:15:10.379Z,34.00
2019-05-14T16:17:47.557Z,34.50
2019-05-14T16:20:11.420Z,35.20
2019-05-14T16:22:40.953Z,34.70
2019-05-14T16:25:10.536Z,35.60
2019-05-14T16:27:40.163Z,36.00
2019-05-14T16:30:10.402Z,36.70
2019-05-14T16:32:40.059Z,36.70
2019-05-14T16:35:10.228Z,36.80
2019-05-14T16:37:39.726Z,36.00
2019-05-14T16:40:09.352Z,35.80
2019-05-14T16:42:39.843Z,34.10
2019-05-14T16:45:09.986Z,35.00
2019-05-14T16:47:40.136Z,34.30
2019-05-14T16:50:10.307Z,33.90
2019-05-14T16:52:42.169Z,33.70
2019-05-14T16:55:22.588Z,34.60
2019-05-14T16:57:42.602Z,34.70
2019-05-14T17:00:12.323Z,34.50
2019-05-14T17:02:41.751Z,34.90
2019-05-14T17:05:11.488Z,35.00
2019-05-14T17:07:41.267Z,35.00
2019-05-14T17:10:11.171Z,34.70
2019-05-14T17:12:52.757Z,34.80
2019-05-14T17:15:11.583Z,35.60
2019-05-14T17:17:42.278Z,36.60
2019-05-14T17:20:12.976Z,36.20
2019-05-14T17:22:42.481Z,36.40
2019-05-14T17:25:26.241Z,36.70
2019-05-14T17:27:43.712Z,36.90
2019-05-14T17:30:13.737Z,36.10
2019-05-14T17:32:43.844Z,36.10
2019-05-14T17:35:13.496Z,35.20
2019-05-14T17:37:42.705Z,36.00
2019-05-14T17:40:12.023Z,36.00
2019-05-14T17:42:41.277Z,35.20
2019-05-14T17:45:10.807Z,36.70
2019-05-14T17:47:40.076Z,36.70
2019-05-14T17:50:10.009Z,36.20
2019-05-14T17:52:42.904Z,36.60
2019-05-14T17:55:12.400Z,35.70
2019-05-14T17:57:47.378Z,36.20
2019-05-14T18:00:14.690Z,35.60
2019-05-14T18:02:43.952Z,35.90
2019-05-14T18:05:13.224Z,36.50
2019-05-14T18:07:42.479Z,37.10
2019-05-14T18:10:11.996Z,35.90
2019-05-14T18:12:41.183Z,36.00
2019-05-14T18:15:11.071Z,35.90
2019-05-14T18:17:40.929Z,36.00
2019-05-14T18:20:10.504Z,36.20
2019-05-14T18:22:42.451Z,36.90
2019-05-14T18:25:10.956Z,36.70
2019-05-14T18:27:40.127Z,37.10
2019-05-14T18:30:10.255Z,37.10
2019-05-14T18:32:39.484Z,37.10
2019-05-14T18:35:09.209Z,37.70
2019-05-14T18:37:39.068Z,37.70
2019-05-14T18:40:09.131Z,38.00
2019-05-14T18:42:39.016Z,38.50
2019-05-14T18:45:09.272Z,39.20
2019-05-14T18:47:39.850Z,38.80
2019-05-14T18:50:10.238Z,39.10
2019-05-14T18:52:40.331Z,39.40
2019-05-14T18:55:09.904Z,39.80
2019-05-14T18:57:39.270Z,40.00
2019-05-14T19:00:09.995Z,40.80
2019-05-14T19:02:39.469Z,40.10
2019-05-14T19:05:09.159Z,41.20
2019-05-14T19:07:39.366Z,41.20
2019-05-14T19:10:09.561Z,41.60
2019-05-14T19:12:39.114Z,41.90
2019-05-14T19:15:09.067Z,42.10
2019-05-14T19:17:38.784Z,43.10
2019-05-14T19:20:10.158Z,43.50
2019-05-14T19:22:39.809Z,43.60
2019-05-14T19:25:10.100Z,43.90
2019-05-14T19:27:39.245Z,44.20
2019-05-14T19:30:08.896Z,44.30
2019-05-14T19:32:39.234Z,44.40
2019-05-14T19:35:08.905Z,44.80
2019-05-14T19:37:39.121Z,44.90
2019-05-14T19:40:09.258Z,45.20
2019-05-14T19:42:39.148Z,45.30
2019-05-14T19:45:09.304Z,45.60
2019-05-14T19:47:40.065Z,46.00
2019-05-14T19:50:10.162Z,45.90
2019-05-14T19:52:39.700Z,46.00
2019-05-14T19:55:09.065Z,46.20
2019-05-14T19:57:38.543Z,46.30
2019-05-14T20:00:09.839Z,46.70
2019-05-14T20:02:39.751Z,46.80
2019-05-14T20:05:09.388Z,46.80
2019-05-14T20:07:39.050Z,46.40
2019-05-14T20:10:09.111Z,46.40
2019-05-14T20:12:39.462Z,46.30
2019-05-14T20:15:09.777Z,46.50
2019-05-14T20:17:38.976Z,46.50
2019-05-14T20:20:09.219Z,46.90
2019-05-14T20:22:39.714Z,47.00
2019-05-14T20:25:09.678Z,47.30
2019-05-14T20:27:39.349Z,47.60
2019-05-14T20:30:10.265Z,48.10
2019-05-14T20:32:39.488Z,48.80
2019-05-14T20:35:09.354Z,49.20
2019-05-14T20:37:39.253Z,50.20
2019-05-14T20:40:09.698Z,50.90
2019-05-14T20:42:39.498Z,51.80
2019-05-14T20:45:09.536Z,52.40
2019-05-14T20:47:39.443Z,52.80
2019-05-14T20:50:09.290Z,52.20
2019-05-14T20:52:38.889Z,52.50
2019-05-14T20:55:09.452Z,52.70
2019-05-14T20:57:39.336Z,53.00
2019-05-14T21:00:11.333Z,53.10
2019-05-14T21:02:40.120Z,53.30
2019-05-14T21:05:13.411Z,53.60
2019-05-14T21:07:40.666Z,54.10
2019-05-14T21:10:10.325Z,54.20
2019-05-14T21:12:39.866Z,54.30
2019-05-14T21:15:09.771Z,54.30
2019-05-14T21:17:39.137Z,54.20
2019-05-14T21:20:09.402Z,54.30
2019-05-14T21:22:40.122Z,54.70
2019-05-14T21:25:12.578Z,54.80
2019-05-14T21:27:47.946Z,54.80
2019-05-14T21:30:12.002Z,54.90
2019-05-14T21:32:42.597Z,55.00
2019-05-14T21:35:12.480Z,54.80
2019-05-14T21:37:42.271Z,55.20
2019-05-14T21:40:11.779Z,55.00
2019-05-14T21:42:41.565Z,55.10
2019-05-14T21:45:11.400Z,55.60
2019-05-14T21:47:40.923Z,55.40
2019-05-14T21:50:10.775Z,55.90
2019-05-14T21:52:42.403Z,55.50
2019-05-14T21:55:11.188Z,55.70
2019-05-14T21:57:53.459Z,55.90
2019-05-14T22:00:19.016Z,55.80
2019-05-14T22:02:49.200Z,56.20
2019-05-14T22:05:19.111Z,56.40
2019-05-14T22:07:49.034Z,56.70
2019-05-14T22:10:19.207Z,57.10
2019-05-14T22:12:48.967Z,57.00
2019-05-14T22:15:18.622Z,57.10
2019-05-14T22:17:49.161Z,57.00
2019-05-14T22:20:19.319Z,57.10
2019-05-14T22:22:48.935Z,57.60
2019-05-14T22:25:19.054Z,57.40
2019-05-14T22:27:48.573Z,57.90
2019-05-14T22:30:18.811Z,58.20
2019-05-14T22:32:48.055Z,58.40
2019-05-14T22:35:39.248Z,57.90
2019-05-14T22:38:08.135Z,58.30
2019-05-14T22:40:39.077Z,58.40
2019-05-14T22:43:09.417Z,58.50
2019-05-14T22:46:08.583Z,58.50
2019-05-14T22:48:38.108Z,58.70
2019-05-14T22:51:08.716Z,58.80
2019-05-14T22:53:38.833Z,58.70
2019-05-14T22:56:08.434Z,59.00
2019-05-14T22:58:38.464Z,59.10
2019-05-14T23:01:14.605Z,59.60
2019-05-14T23:03:39.837Z,59.00
2019-05-14T23:06:09.443Z,58.80
2019-05-14T23:08:39.243Z,59.20
2019-05-14T23:11:08.805Z,59.00
2019-05-14T23:13:39.128Z,59.30
2019-05-14T23:16:08.855Z,59.50
2019-05-14T23:18:38.185Z,59.50
2019-05-14T23:21:08.887Z,59.80
2019-05-14T23:23:39.416Z,59.90
2019-05-14T23:26:09.101Z,59.90
2019-05-14T23:28:45.214Z,59.60
2019-05-14T23:31:10.230Z,59.80
2019-05-14T23:33:39.881Z,60.30
2019-05-14T23:36:09.104Z,60.30
2019-05-14T23:38:39.522Z,61.10
2019-05-14T23:41:08.983Z,61.00
2019-05-14T23:43:39.291Z,61.20
2019-05-14T23:46:09.344Z,61.30
2019-05-14T23:48:39.519Z,61.30
2019-05-14T23:51:09.112Z,62.20
2019-05-14T23:53:39.212Z,61.70
2019-05-14T23:56:08.917Z,62.00
2019-05-14T23:58:38.350Z,61.70
